Portada
METAR-TAF:

METAR-TAF

Aeroports :

Gibraltar, Gibraltar

latitud: 36-09N, longitud: 005-21W, altitud: 5 m

Observació

L'informe es va fer fa 46 minuts, a les 04:50 UTC
Vent 7 kt del Oest
Temperatura 21°C
Humitat 83%
Pressió 1013 hPa
Visibilitat 10 km o més
sense núvols per sota de 1500 mi sense presència de cumulonimbus.

METAR: LXGB 210450Z 28007KT CAVOK 21/18 Q1013 RMK BLU

Hora: 07:36 (05:36 UTC)

Pronòstic

L'informe es va fer fa 30 minuts, a les 05:06 UTC
Pronòstic vàlid del 21 a les 06 UTC al 21 a les 15 UTC
Vent 8 kt del Oest
Visibilitat 10 km o més
Escasses núvols a una alçada de 1200 ft
Probabilitat 30% :
Temporalment
l' 21 a les 06 UTC al 21 a les 09 UTC
Núvols disperses a una alçada de 1600 ft

TAF: LXGB 210506Z 2106/2115 27008KT 9999 FEW012 PROB30 TEMPO 2106/2109 SCT016

Observacions i pronòstics meteorològics de més de 4000 aeroports (METAR i TAF).

Les estacions disponibles són els punts grocs i vermells al mapa.

Posi el ratolí al punt desitjat per veure el nom de l'estació.

Feu clic per veure les observacions i els pronòstics meteorològics.

Per canviar el mapa: feu clic els botons verds amb una creu de color negre per apropar; al botó verd amb un guió per allunyar la imatge; o en les fletxes verdes per a mapes adjacents.


METAR-TAF: